Mount Zion, North Carolina
Current Conditions -  °F | °C
As of 9:54 AM on Monday 24 Nov 2014 (Local Time) from KGSO Reporting Station
Scattered Clouds Scattered Clouds  
Wind Chill: 64°   Ceiling: Unl
Heat Index: 64°   Visibility: 10mi
Dew Point: 56°   Wind: 18mph
Humidity: 75%   Direction: 210°SSW
Pressure: 29.78"   Gusts: 28mph
Location:  36.1157°N, 79.7378°W
Report Text: KGSO 241454Z 21016G24KT 10SM SCT022 18/13 A2978 RMK AO2 SLP079 T01780133 51011
Loading
Personal Weather Stations






























Interactive Weather Map New forecast layout! Learn more

10-Day Weather Forecast

Advertisements
Track Severe Weather on mobile